Airfield :
LOGIN :

Register | Disclaimer

   EN    FR    IT 

 










Legend :    VFR   Marginal VFR   IFR   Intensive IFR   Very Intensive IFR
Visi :
Ceiling :
>= 8 km
>= 3000ft
5 to 8 km
1000 to 3000 ft
1500m to 5 km
500 to 1000 ft
800 to 1500m
200 to 500 ft
< 800m
< 200 ft
Symbols :   Thunderstorms  Fog  Heavy snow  Heavy precipitations  Wind > 20 kt
SIGMETs :     Misc.  Thunderstorms  Icing  Turbulence  Mountain Waves  Volcanic Ashes






- Airport Elevation : 84 ft


LFBC - Cazaux

CURRENT METAR :
  • 011300Z AUTO 03007KT 360V070 9999 SCT024 BKN029 11/06 Q1021 NOSIG

EXPIRED METARs :
  • 011230Z AUTO 04008KT 010V070 9999 FEW022 10/05 Q1021 NOSIG
  • 011200Z AUTO 03008KT 360V080 CAVOK 10/05 Q1021 NOSIG
  • 011130Z AUTO 03007KT CAVOK 09/06 Q1022 NOSIG
  • 011100Z AUTO 02006KT CAVOK 08/05 Q1022 NOSIG
  • 011030Z AUTO 03006KT 9999 FEW009 07/05 Q1022 NOSIG

TAF TAF LFBC
Valid from the 01 at 09:00 until the 02 at 09:00 UTC


010800Z 0109/0209 12003KT 8000 FEW003
BECMG 0109/0111 BKN004
BECMG 0111/0113 FEW005 BKN020
BECMG 0203/0205 3000 BR BKN003
BECMG 0207/0209 BKN007



MET'MAP, your aeronautical weather chart ! - Copyright ORBIFLY December 2007 - Disclaimer

ORBIFLY MET'MAP TEAM :

Programming & Development : Alexandra Zaïnal
Original concept : Baudouin d'Aumeries
Technical & hardware support : Manuel Goepfert
Assistance : Marc-Olivier Méhu




SOURCES & CREDITS :

   NOAA